Time;durP1;ratioP1;P1;durP2;ratioP2;P2;SDS_P1;SDS_P2;PMS_P1;PMS_P2;Temp;Humidity;BMP_temperature;BMP_pressure;BME280_temperature;BME280_humidity;BME280_pressure;Samples;Min_cycle;Max_cycle;Signal;HPM_P1;HPM_P2
2022/06/28 00:02:03;;;;;;;45.13;23.70;;;;;;;13.45;100.00;101718.88;5035322;28;20037;-76
2022/06/28 00:04:29;;;;;;;51.53;24.10;;;;;;;13.44;100.00;101717.97;5051690;28;20435;-76
2022/06/28 00:06:54;;;;;;;41.25;23.38;;;;;;;13.45;100.00;101708.75;5035009;28;20484;-76
2022/06/28 00:09:20;;;;;;;41.40;22.50;;;;;;;13.45;100.00;101713.38;5051527;28;20065;-76
2022/06/28 00:11:46;;;;;;;36.55;19.95;;;;;;;13.44;100.00;101711.59;5052819;28;20079;-76
2022/06/28 00:16:57;;;;;;;38.28;19.30;;;;;;;13.46;100.00;101710.47;5051883;28;20533;-77
2022/06/28 00:19:23;;;;;;;32.47;16.35;;;;;;;13.45;100.00;101711.50;5018624;28;20116;-76
2022/06/28 00:21:50;;;;;;;42.20;18.20;;;;;;;13.46;100.00;101721.47;5051664;28;20508;-76
2022/06/28 00:24:15;;;;;;;30.80;16.08;;;;;;;13.42;100.00;101708.97;5052740;28;20062;-76
2022/06/28 00:26:42;;;;;;;30.85;16.00;;;;;;;13.46;100.00;101726.97;5051670;28;20083;-76
2022/06/28 00:29:08;;;;;;;32.70;14.40;;;;;;;13.47;100.00;101714.13;5052502;28;20041;-76
2022/06/28 00:31:33;;;;;;;32.08;14.07;;;;;;;13.44;100.00;101719.88;5035003;28;20029;-76
2022/06/28 00:33:59;;;;;;;32.45;14.52;;;;;;;13.41;100.00;101720.97;5054019;28;20033;-76
2022/06/28 00:36:25;;;;;;;26.08;14.23;;;;;;;13.38;100.00;101716.59;5055309;28;20372;-76
2022/06/28 00:38:50;;;;;;;36.72;13.55;;;;;;;13.39;100.00;101717.47;5055249;28;20104;-76
2022/06/28 00:41:16;;;;;;;31.90;13.10;;;;;;;13.32;100.00;101721.66;5055147;28;20029;-76
2022/06/28 00:43:42;;;;;;;28.27;12.90;;;;;;;13.30;100.00;101721.78;5055178;28;20392;-77
2022/06/28 00:46:08;;;;;;;26.08;12.70;;;;;;;13.31;100.00;101717.16;5055329;28;20043;-76
2022/06/28 00:48:34;;;;;;;29.48;13.02;;;;;;;13.29;100.00;101722.75;5055126;28;20114;-76
2022/06/28 00:51:00;;;;;;;25.05;12.48;;;;;;;13.29;100.00;101713.63;5056292;28;20064;-76
2022/06/28 00:53:26;;;;;;;23.92;11.82;;;;;;;13.21;100.00;101720.59;5038369;28;20033;-76
2022/06/28 00:55:51;;;;;;;36.63;12.77;;;;;;;13.24;100.00;101722.25;5038361;28;20063;-76
2022/06/28 00:58:17;;;;;;;28.23;12.18;;;;;;;13.22;100.00;101724.25;5056248;28;20060;-76
2022/06/28 01:00:46;;;;;;;26.08;12.52;;;;;;;13.20;100.00;101729.84;5056234;28;20025;-76
2022/06/28 01:03:15;;;;;;;32.92;11.75;;;;;;;13.19;100.00;101729.97;5054899;28;20488;-76
2022/06/28 01:05:42;;;;;;;24.20;12.40;;;;;;;13.21;100.00;101727.97;5054852;28;20052;-76
2022/06/28 01:08:08;;;;;;;25.67;11.38;;;;;;;13.14;100.00;101735.81;5055990;28;20032;-76
2022/06/28 01:10:35;;;;;;;31.40;11.35;;;;;;;13.17;100.00;101735.59;5054768;28;20423;-76
2022/06/28 01:13:02;;;;;;;42.58;12.77;;;;;;;13.17;100.00;101731.97;5056016;28;20087;-76
2022/06/28 01:15:28;;;;;;;26.27;11.00;;;;;;;13.17;100.00;101740.22;5054678;28;20033;-76
2022/06/28 01:17:54;;;;;;;23.00;10.05;;;;;;;13.20;100.00;101731.75;5055896;28;20063;-77
2022/06/28 01:20:23;;;;;;;22.33;10.63;;;;;;;13.15;100.00;101734.81;5055800;28;20029;-76
2022/06/28 01:22:49;;;;;;;24.50;9.68;;;;;;;13.15;100.00;101736.69;5055683;28;20091;-76
2022/06/28 01:25:14;;;;;;;25.02;11.10;;;;;;;13.15;100.00;101739.44;5037829;28;20032;-76
2022/06/28 01:27:40;;;;;;;24.38;10.95;;;;;;;13.16;100.00;101742.06;5055464;28;20065;-76
2022/06/28 01:30:07;;;;;;;24.58;10.70;;;;;;;13.05;100.00;101751.16;5037865;28;20063;-76
2022/06/28 01:32:34;;;;;;;22.27;10.45;;;;;;;13.04;100.00;101749.38;5054318;28;20125;-76
2022/06/28 01:35:00;;;;;;;25.42;11.52;;;;;;;13.10;100.00;101750.81;5021349;28;20033;-76
2022/06/28 01:37:27;;;;;;;28.58;11.02;;;;;;;13.07;100.00;101753.78;5054199;28;20028;-76
2022/06/28 01:39:52;;;;;;;30.23;9.77;;;;;;;12.96;100.00;101751.81;5055640;28;20029;-76
2022/06/28 01:42:18;;;;;;;34.20;11.20;;;;;;;12.93;100.00;101752.06;5055387;28;20044;-76
2022/06/28 01:44:45;;;;;;;25.63;10.43;;;;;;;12.96;100.00;101754.56;5053530;28;20544;-77
2022/06/28 01:47:12;;;;;;;30.05;11.10;;;;;;;12.87;100.00;101758.91;5037158;28;20116;-76
2022/06/28 01:49:38;;;;;;;30.58;11.63;;;;;;;12.85;100.00;101752.66;5053930;28;20029;-76
2022/06/28 01:52:04;;;;;;;27.85;9.93;;;;;;;12.74;100.00;101757.16;5053903;28;20040;-76
2022/06/28 01:54:30;;;;;;;28.02;10.95;;;;;;;12.81;100.00;101762.09;5037327;28;20065;-76
2022/06/28 01:56:55;;;;;;;29.20;11.45;;;;;;;12.82;100.00;101763.88;5053900;28;20141;-76
2022/06/28 01:59:22;;;;;;;31.48;11.88;;;;;;;12.80;100.00;101763.06;5054042;28;20056;-76
2022/06/28 02:01:47;;;;;;;25.30;10.20;;;;;;;12.84;100.00;101766.50;5053829;28;20028;-76
2022/06/28 02:04:18;;;;;;;28.02;10.32;;;;;;;12.73;100.00;101755.41;5054903;28;20086;-76
2022/06/28 02:06:44;;;;;;;18.85;9.40;;;;;;;12.66;100.00;101764.09;5037229;28;20032;-76
2022/06/28 02:09:09;;;;;;;22.10;10.05;;;;;;;12.62;100.00;101764.44;5053475;28;20044;-76
2022/06/28 02:11:35;;;;;;;30.02;10.98;;;;;;;12.57;100.00;101763.91;5053766;28;20477;-76
2022/06/28 02:14:01;;;;;;;21.73;10.07;;;;;;;12.47;100.00;101771.94;5054787;28;20033;-76
2022/06/28 02:16:26;;;;;;;27.20;9.32;;;;;;;12.52;100.00;101769.72;5053612;28;20036;-77
2022/06/28 02:18:52;;;;;;;23.15;10.10;;;;;;;12.48;100.00;101777.31;5036930;28;20029;-77
2022/06/28 02:21:17;;;;;;;24.02;11.35;;;;;;;12.59;100.00;101776.56;5054655;28;20112;-76
2022/06/28 02:23:43;;;;;;;27.30;11.18;;;;;;;12.59;100.00;101776.56;5053365;28;20044;-76
2022/06/28 02:26:11;;;;;;;22.27;10.05;;;;;;;12.46;100.00;101783.91;5053409;28;20071;-77
2022/06/28 02:28:37;;;;;;;24.75;10.10;;;;;;;12.25;100.00;101781.72;5053101;28;20416;-76
2022/06/28 02:31:14;;;;;;;27.58;10.35;;;;;;;12.27;100.00;101793.47;5036790;28;20040;-76
2022/06/28 02:33:41;;;;;;;25.10;10.52;;;;;;;12.34;100.00;101793.91;5054712;28;20029;-77
2022/06/28 02:41:35;;;;;;;21.25;10.13;;;;;;;12.30;100.00;101792.38;5054309;28;20150;-76
2022/06/28 02:44:02;;;;;;;24.13;9.98;;;;;;;12.31;100.00;101799.63;5054140;28;20033;-76
2022/06/28 02:46:27;;;;;;;23.02;9.63;;;;;;;12.17;100.00;101802.44;5054255;28;20029;-77
2022/06/28 02:48:53;;;;;;;29.83;10.48;;;;;;;12.16;100.00;101811.69;5052955;28;20435;-76
2022/06/28 02:51:20;;;;;;;30.02;10.50;;;;;;;12.01;100.00;101808.16;5052743;28;20123;-76
2022/06/28 02:53:46;;;;;;;24.08;10.45;;;;;;;12.05;100.00;101812.44;5052830;28;20111;-77
2022/06/28 02:56:12;;;;;;;26.90;10.75;;;;;;;12.05;100.00;101813.34;5053675;28;20028;-76
2022/06/28 02:58:38;;;;;;;25.40;10.55;;;;;;;12.11;100.00;101814.75;5052563;28;20059;-76
2022/06/28 03:01:04;;;;;;;34.50;10.55;;;;;;;12.02;100.00;101818.13;5053749;28;20083;-76
2022/06/28 03:03:30;;;;;;;25.20;9.98;;;;;;;12.06;100.00;101823.31;5053791;28;20039;-77
2022/06/28 03:05:55;;;;;;;22.55;9.93;;;;;;;12.05;100.00;101828.91;5053719;28;20032;-76
2022/06/28 03:08:21;;;;;;;28.40;10.52;;;;;;;12.07;100.00;101825.09;5053822;28;20066;-76
2022/06/28 03:10:47;;;;;;;26.23;10.13;;;;;;;12.09;100.00;101824.97;5053611;28;20029;-76
2022/06/28 03:13:12;;;;;;;27.42;9.68;;;;;;;12.05;100.00;101837.16;5053629;28;20037;-77
2022/06/28 03:15:38;;;;;;;30.45;10.27;;;;;;;11.98;100.00;101825.72;5052373;28;20029;-76
2022/06/28 03:18:03;;;;;;;21.30;9.90;;;;;;;12.08;100.00;101828.69;5035742;28;20029;-76
2022/06/28 03:20:29;;;;;;;21.00;9.70;;;;;;;12.19;100.00;101828.81;5053533;28;20043;-76
2022/06/28 03:22:55;;;;;;;22.95;9.65;;;;;;;12.17;100.00;101819.81;5052392;28;20095;-76
2022/06/28 03:25:21;;;;;;;26.23;9.00;;;;;;;12.15;100.00;101819.06;5053346;28;20041;-76
2022/06/28 03:27:47;;;;;;;34.95;8.48;;;;;;;12.19;100.00;101823.34;5035478;28;20175;-76
2022/06/28 03:30:12;;;;;;;23.67;9.55;;;;;;;12.18;100.00;101831.69;5053356;28;20033;-76
2022/06/28 03:32:38;;;;;;;21.23;9.30;;;;;;;12.02;100.00;101840.09;5052045;28;20037;-76
2022/06/28 03:35:04;;;;;;;21.35;8.93;;;;;;;12.06;100.00;101838.91;5051947;28;20480;-76
2022/06/28 03:37:29;;;;;;;19.42;9.63;;;;;;;12.13;100.00;101834.75;5051985;28;20044;-76
2022/06/28 03:39:55;;;;;;;22.65;8.55;;;;;;;12.16;100.00;101826.28;5051960;28;20478;-76
2022/06/28 03:42:20;;;;;;;18.98;8.38;;;;;;;12.12;100.00;101822.91;5035468;28;20040;-76
2022/06/28 03:44:46;;;;;;;19.75;8.02;;;;;;;12.19;100.00;101834.31;5053195;28;20029;-76
2022/06/28 03:47:12;;;;;;;26.38;8.70;;;;;;;12.19;100.00;101834.31;5051858;28;20039;-76
2022/06/28 03:49:37;;;;;;;25.15;8.35;;;;;;;12.16;100.00;101852.88;5053312;28;20392;-76
2022/06/28 03:52:03;;;;;;;23.30;8.55;;;;;;;12.10;100.00;101832.22;5053114;28;20033;-76
2022/06/28 03:54:28;;;;;;;25.83;7.93;;;;;;;12.13;100.00;101835.66;5053214;28;20029;-76
2022/06/28 03:56:54;;;;;;;32.55;7.72;;;;;;;12.10;100.00;101846.84;5053296;28;20523;-76
2022/06/28 03:59:19;;;;;;;23.92;8.18;;;;;;;12.07;100.00;101847.03;5051924;28;20025;-76
2022/06/28 04:01:45;;;;;;;20.55;8.32;;;;;;;12.08;100.00;101845.16;5035218;28;20040;-76
2022/06/28 04:04:10;;;;;;;28.05;8.93;;;;;;;11.98;100.00;101841.31;5035143;28;20443;-76
2022/06/28 04:06:36;;;;;;;24.23;8.73;;;;;;;12.07;100.00;101847.03;5035089;28;20120;-76
2022/06/28 04:09:01;;;;;;;23.58;8.70;;;;;;;12.04;100.00;101851.88;5054547;28;20045;-76
2022/06/28 04:11:27;;;;;;;18.40;7.85;;;;;;;12.02;100.00;101856.56;5039364;28;20473;-76
2022/06/28 04:13:53;;;;;;;24.17;8.07;;;;;;;12.06;100.00;101856.25;5055825;28;20041;-76
2022/06/28 04:16:21;;;;;;;23.23;8.05;;;;;;;12.09;100.00;101863.41;5055859;28;20029;-76
2022/06/28 04:18:47;;;;;;;28.25;8.95;;;;;;;12.05;100.00;101865.50;5057081;28;20032;-77
2022/06/28 04:21:15;;;;;;;23.70;9.30;;;;;;;11.95;100.00;101870.75;5039293;28;20051;-76
2022/06/28 04:23:41;;;;;;;29.77;8.70;;;;;;;12.04;100.00;101860.97;5056897;28;20083;-76
2022/06/28 04:26:07;;;;;;;15.23;8.65;;;;;;;12.14;100.00;101863.97;5055144;28;20036;-76
2022/06/28 04:28:33;;;;;;;27.30;9.20;;;;;;;12.15;100.00;101863.00;5056578;28;20057;-76
2022/06/28 04:31:00;;;;;;;30.75;9.75;;;;;;;12.28;100.00;101860.25;5056648;28;20075;-76
2022/06/28 04:33:26;;;;;;;22.10;8.20;;;;;;;12.23;100.00;101860.59;5038698;28;20032;-76
2022/06/28 04:35:52;;;;;;;33.13;10.25;;;;;;;12.14;100.00;101864.84;5056734;28;20519;-77
2022/06/28 04:38:17;;;;;;;20.52;9.07;;;;;;;12.22;100.00;101868.94;5055547;28;20488;-77
2022/06/28 04:40:43;;;;;;;20.10;8.95;;;;;;;12.26;100.00;101862.22;5038732;28;20484;-77
2022/06/28 04:43:08;;;;;;;24.75;8.95;;;;;;;12.29;100.00;101873.88;5038624;28;20036;-77
2022/06/28 04:45:34;;;;;;;31.50;9.05;;;;;;;12.29;100.00;101868.38;5056565;28;20064;-77
2022/06/28 04:48:00;;;;;;;19.73;8.30;;;;;;;12.39;100.00;101868.59;5055493;28;20481;-77
2022/06/28 04:50:26;;;;;;;24.05;8.25;;;;;;;12.52;100.00;101865.88;5022024;28;20484;-77
2022/06/28 04:52:51;;;;;;;22.35;8.05;;;;;;;12.46;100.00;101864.47;5021961;28;20037;-77
2022/06/28 04:55:17;;;;;;;15.65;7.18;;;;;;;12.53;100.00;101867.66;5055253;28;20102;-77
2022/06/28 04:57:43;;;;;;;20.42;8.27;;;;;;;12.58;100.00;101870.06;5054958;28;20029;-77
2022/06/28 05:00:10;;;;;;;23.02;6.93;;;;;;;12.61;100.00;101867.06;5038281;28;20028;-77
2022/06/28 05:02:36;;;;;;;22.77;7.32;;;;;;;12.70;100.00;101866.44;5056076;28;20040;-77
2022/06/28 05:05:07;;;;;;;22.63;9.07;;;;;;;12.75;100.00;101872.47;5056008;28;20036;-77
2022/06/28 05:07:33;;;;;;;35.17;8.23;;;;;;;12.84;100.00;101871.81;5055940;28;20032;-77
2022/06/28 05:10:00;;;;;;;26.80;7.88;;;;;;;12.88;100.00;101869.72;5054768;28;20137;-77
2022/06/28 05:12:26;;;;;;;23.55;8.85;;;;;;;12.96;100.00;101874.66;5055797;28;20037;-77
2022/06/28 05:14:51;;;;;;;33.05;9.60;;;;;;;13.06;100.00;101862.00;5054785;28;20060;-77
2022/06/28 05:17:17;;;;;;;31.00;8.98;;;;;;;13.14;100.00;101872.44;5055936;28;20488;-77
2022/06/28 05:19:43;;;;;;;27.45;8.80;;;;;;;13.19;100.00;101868.34;5054579;28;20365;-77
2022/06/28 05:22:08;;;;;;;28.25;8.13;;;;;;;13.51;100.00;101875.22;5055690;28;20064;-77
2022/06/28 05:24:35;;;;;;;22.48;7.32;;;;;;;13.84;100.00;101870.88;5055828;28;20075;-77
2022/06/28 05:27:01;;;;;;;25.67;7.40;;;;;;;13.94;100.00;101872.81;5055428;28;20503;-77
2022/06/28 05:29:27;;;;;;;28.80;7.13;;;;;;;14.20;100.00;101872.69;5054409;28;20029;-77
2022/06/28 05:31:52;;;;;;;22.27;6.32;;;;;;;14.61;100.00;101871.31;5037765;28;20141;-77
2022/06/28 05:34:18;;;;;;;12.02;5.28;;;;;;;14.68;100.00;101878.06;5055758;28;20096;-77
2022/06/28 05:36:43;;;;;;;34.33;5.43;;;;;;;15.06;100.00;101875.97;5054278;28;20086;-77
2022/06/28 05:39:09;;;;;;;13.35;4.88;;;;;;;15.21;100.00;101873.84;5054371;28;20036;-77
2022/06/28 05:41:34;;;;;;;18.48;5.30;;;;;;;15.03;100.00;101862.44;5054177;28;20033;-77
2022/06/28 05:44:00;;;;;;;19.70;6.32;;;;;;;15.14;100.00;101870.69;5055350;28;20040;-77
2022/06/28 05:46:26;;;;;;;25.63;5.03;;;;;;;15.51;100.00;101862.13;5054191;28;20029;-77
2022/06/28 05:48:52;;;;;;;24.63;4.97;;;;;;;15.68;100.00;101866.22;5055160;28;20033;-77
2022/06/28 05:51:17;;;;;;;27.48;4.32;;;;;;;16.07;100.00;101858.34;5054187;28;20115;-76
2022/06/28 05:53:43;;;;;;;22.75;5.13;;;;;;;16.05;100.00;101857.56;5054000;28;20108;-77
2022/06/28 05:56:08;;;;;;;18.50;4.10;;;;;;;16.09;100.00;101858.19;5055197;28;20037;-77
2022/06/28 05:58:34;;;;;;;19.98;3.92;;;;;;;16.41;100.00;101854.50;5054053;28;20033;-77
2022/06/28 06:00:59;;;;;;;34.58;4.93;;;;;;;16.14;100.00;101855.91;5037068;28;20090;-76
2022/06/28 06:03:25;;;;;;;19.98;4.10;;;;;;;15.92;100.00;101855.00;5037342;28;20043;-75
2022/06/28 06:05:51;;;;;;;25.55;4.72;;;;;;;15.75;100.00;101847.25;5053762;28;20039;-77
2022/06/28 06:08:16;;;;;;;22.10;4.50;;;;;;;16.25;100.00;101853.09;5053723;28;20032;-77
2022/06/28 06:10:42;;;;;;;29.63;5.05;;;;;;;16.01;100.00;101855.22;5054965;28;20472;-77
2022/06/28 06:13:07;;;;;;;28.48;5.22;;;;;;;16.54;100.00;101860.69;5053767;28;20411;-77
2022/06/28 06:15:32;;;;;;;25.85;4.57;;;;;;;16.81;100.00;101867.56;5053695;28;20037;-75
2022/06/28 06:17:58;;;;;;;33.45;4.55;;;;;;;16.48;100.00;101869.56;5054850;28;20477;-75
2022/06/28 06:20:23;;;;;;;31.73;5.97;;;;;;;17.35;100.00;101871.00;5053548;28;20029;-75
2022/06/28 06:22:49;;;;;;;22.23;4.18;;;;;;;17.82;100.00;101865.72;5053639;28;20519;-75
2022/06/28 06:25:16;;;;;;;33.67;4.22;;;;;;;17.60;100.00;101864.94;5053410;28;20052;-74
2022/06/28 06:27:43;;;;;;;29.13;3.47;;;;;;;17.24;100.00;101866.47;5053393;28;20405;-76
2022/06/28 06:30:09;;;;;;;30.05;4.10;;;;;;;17.90;100.00;101876.09;5053147;28;20033;-75
2022/06/28 06:32:34;;;;;;;32.05;4.13;;;;;;;18.19;100.00;101884.44;5052613;28;20071;-76
2022/06/28 06:35:00;;;;;;;17.67;3.63;;;;;;;18.02;100.00;101885.16;5054286;28;20415;-77
2022/06/28 06:37:26;;;;;;;27.67;3.67;;;;;;;18.67;100.00;101882.63;5054404;28;20431;-75
2022/06/28 06:39:52;;;;;;;26.40;3.50;;;;;;;18.57;100.00;101876.22;5054330;28;20025;-75
2022/06/28 06:42:17;;;;;;;17.45;3.90;;;;;;;18.40;100.00;101880.63;5052983;28;20028;-75
2022/06/28 06:44:43;;;;;;;21.98;3.45;;;;;;;18.26;100.00;101880.03;5053177;28;20083;-75
2022/06/28 06:47:08;;;;;;;18.80;3.35;;;;;;;18.92;100.00;101883.91;5054457;28;20040;-75
2022/06/28 06:49:34;;;;;;;19.70;3.15;;;;;;;18.90;100.00;101892.38;5053068;28;20032;-75
2022/06/28 06:51:59;;;;;;;21.83;3.80;;;;;;;18.99;100.00;101886.94;5053177;28;20040;-75
2022/06/28 06:54:25;;;;;;;15.77;3.05;;;;;;;18.98;100.00;101888.84;5053617;28;20033;-76
2022/06/28 06:56:50;;;;;;;20.10;2.97;;;;;;;18.88;100.00;101886.09;5053732;28;20041;-76
2022/06/28 06:59:17;;;;;;;25.40;3.38;;;;;;;19.05;100.00;101895.56;5053193;28;20025;-76
2022/06/28 07:01:43;;;;;;;19.65;3.70;;;;;;;19.37;100.00;101885.91;5036501;28;20075;-76
2022/06/28 07:04:08;;;;;;;14.15;2.88;;;;;;;19.53;100.00;101885.25;5054076;28;20433;-76
2022/06/28 07:06:34;;;;;;;18.33;3.45;;;;;;;19.68;100.00;101885.59;5054393;28;20043;-76
2022/06/28 07:09:00;;;;;;;25.83;3.35;;;;;;;19.91;100.00;101894.38;5019678;28;20029;-76
2022/06/28 07:11:26;;;;;;;17.05;3.20;;;;;;;20.05;100.00;101894.88;5052958;28;20033;-75
2022/06/28 07:13:52;;;;;;;23.75;3.30;;;;;;;20.13;100.00;101894.94;5054038;28;20040;-75
2022/06/28 07:16:17;;;;;;;19.20;2.53;;;;;;;20.09;100.00;101888.84;5052718;28;20033;-76
2022/06/28 07:18:43;;;;;;;19.48;2.72;;;;;;;19.79;100.00;101888.19;5054009;28;20029;-76
2022/06/28 07:21:09;;;;;;;9.70;2.47;;;;;;;20.29;100.00;101883.97;5052365;28;20033;-76
2022/06/28 07:23:35;;;;;;;14.57;2.17;;;;;;;19.91;100.00;101887.97;5053854;28;20037;-76
2022/06/28 07:26:02;;;;;;;15.93;2.20;;;;;;;20.45;98.63;101885.16;5052308;28;20365;-76
2022/06/28 07:28:28;;;;;;;18.20;2.60;;;;;;;20.15;100.00;101890.09;5052254;28;20496;-76
2022/06/28 07:30:53;;;;;;;19.83;2.22;;;;;;;20.99;96.82;101885.94;5052323;28;20044;-76
2022/06/28 07:33:19;;;;;;;18.95;2.40;;;;;;;20.96;93.63;101889.03;5054142;28;20507;-76
2022/06/28 07:35:44;;;;;;;16.67;2.20;;;;;;;21.46;94.62;101891.03;5019171;28;20128;-76
2022/06/28 07:38:10;;;;;;;10.45;1.58;;;;;;;20.92;90.93;101884.81;5052421;28;20036;-76
2022/06/28 07:40:36;;;;;;;8.93;1.30;;;;;;;20.99;84.08;101885.03;5053857;28;20540;-76
2022/06/28 07:43:01;;;;;;;15.90;1.42;;;;;;;20.26;87.84;101887.06;5051842;28;20059;-76
2022/06/28 07:45:27;;;;;;;16.23;1.80;;;;;;;20.51;92.35;101887.28;5053597;28;20025;-76
2022/06/28 07:47:52;;;;;;;14.50;1.55;;;;;;;21.46;88.02;101879.91;5052375;28;20025;-76
2022/06/28 07:53:04;;;;;;;10.45;1.10;;;;;;;21.92;85.44;101878.66;5053497;28;20029;-76
2022/06/28 07:55:30;;;;;;;8.85;1.40;;;;;;;22.15;84.63;101884.44;5053395;28;20040;-76
2022/06/28 07:57:57;;;;;;;14.68;1.40;;;;;;;21.90;84.65;101880.75;5053353;28;20286;-76
2022/06/28 08:00:23;;;;;;;9.88;1.05;;;;;;;21.89;84.68;101876.19;5051979;28;20028;-76
2022/06/28 08:02:49;;;;;;;8.90;1.08;;;;;;;21.84;83.31;101871.13;5035509;28;20115;-76
2022/06/28 08:05:15;;;;;;;14.98;1.70;;;;;;;21.88;85.25;101869.75;5051941;28;20033;-76
2022/06/28 08:07:41;;;;;;;14.63;1.40;;;;;;;22.17;84.36;101874.84;5052242;28;20028;-76
2022/06/28 08:10:08;;;;;;;16.05;1.70;;;;;;;22.27;81.42;101862.63;5053012;28;20388;-77
2022/06/28 08:12:34;;;;;;;14.70;1.42;;;;;;;22.78;77.23;101866.13;5019098;28;20041;-76
2022/06/28 08:15:00;;;;;;;4.22;1.00;;;;;;;22.33;78.66;101857.28;5053239;28;20037;-76
2022/06/28 08:17:26;;;;;;;13.00;1.23;;;;;;;22.71;76.70;101859.50;5053001;28;20044;-76
2022/06/28 08:19:51;;;;;;;7.68;0.77;;;;;;;21.97;72.81;101863.16;5051870;28;20035;-76
2022/06/28 08:22:17;;;;;;;6.15;0.80;;;;;;;22.38;71.32;101862.31;5051914;28;20059;-76
2022/06/28 08:24:43;;;;;;;10.90;1.20;;;;;;;22.76;67.54;101857.94;5051676;28;20017;-76
2022/06/28 08:27:08;;;;;;;8.75;0.95;;;;;;;22.55;73.08;101864.06;5051747;28;20037;-76
2022/06/28 08:29:34;;;;;;;7.60;1.00;;;;;;;22.68;72.58;101846.78;5052887;28;20466;-76
2022/06/28 08:32:00;;;;;;;6.68;1.30;;;;;;;22.65;71.69;101841.56;5052926;28;20040;-76
2022/06/28 08:34:26;;;;;;;6.93;1.00;;;;;;;22.75;74.92;101850.59;5052838;28;20060;-76
2022/06/28 08:36:52;;;;;;;6.07;0.80;;;;;;;23.09;71.55;101845.84;5034917;28;20369;-76
2022/06/28 08:39:18;;;;;;;3.85;0.80;;;;;;;23.41;74.57;101836.44;5035465;28;20029;-76
2022/06/28 08:41:45;;;;;;;6.38;0.95;;;;;;;23.17;71.34;101833.75;5034995;28;20484;-76
2022/06/28 08:44:11;;;;;;;12.38;1.10;;;;;;;23.03;70.44;101841.78;5051867;28;20538;-76
2022/06/28 08:46:38;;;;;;;5.85;0.85;;;;;;;23.09;70.19;101835.53;5052688;28;20388;-76
2022/06/28 08:49:15;;;;;;;8.65;1.05;;;;;;;22.87;71.83;101831.53;5052607;28;20025;-76
2022/06/28 08:51:41;;;;;;;11.82;1.02;;;;;;;23.45;67.15;101829.44;5034955;28;20120;-76
2022/06/28 08:54:06;;;;;;;6.40;0.80;;;;;;;22.73;72.70;101829.50;5052790;28;20112;-76
2022/06/28 08:56:32;;;;;;;5.22;0.82;;;;;;;23.12;78.11;101821.19;5056377;28;20503;-76
2022/06/28 08:58:59;;;;;;;6.63;0.82;;;;;;;22.61;74.61;101826.19;5056441;28;20065;-76
2022/06/28 09:01:25;;;;;;;6.43;0.73;;;;;;;23.65;74.36;101829.84;5056264;28;20032;-76
2022/06/28 09:03:52;;;;;;;9.00;1.13;;;;;;;23.46;74.25;101831.19;5038501;28;20037;-76
2022/06/28 09:06:18;;;;;;;6.75;1.13;;;;;;;23.58;73.52;101830.75;5056135;28;20037;-76
2022/06/28 09:08:43;;;;;;;4.75;0.85;;;;;;;23.36;69.94;101832.44;5055320;28;20082;-76
2022/06/28 09:11:09;;;;;;;11.32;1.17;;;;;;;22.55;76.31;101816.63;5055042;28;20044;-76
2022/06/28 09:13:35;;;;;;;8.50;1.30;;;;;;;23.27;75.76;101828.84;5054879;28;20396;-76
2022/06/28 09:16:03;;;;;;;8.02;1.17;;;;;;;23.27;69.24;101829.69;5055008;28;20538;-77
2022/06/28 09:18:35;;;;;;;5.53;0.80;;;;;;;23.95;69.65;101821.63;5056270;28;20048;-77
2022/06/28 09:21:01;;;;;;;5.95;1.13;;;;;;;23.72;73.33;101829.09;5056008;28;20037;-77
2022/06/28 09:23:35;;;;;;;5.47;1.00;;;;;;;23.29;67.73;101816.41;5055965;28;20032;-76
2022/06/28 09:26:12;;;;;;;7.10;0.93;;;;;;;23.26;70.61;101813.97;5038191;28;20037;-77
2022/06/28 09:28:41;;;;;;;5.05;1.45;;;;;;;23.37;72.72;101815.50;5055763;28;20094;-77
2022/06/28 09:31:19;;;;;;;8.48;1.05;;;;;;;23.58;69.92;101822.34;5055630;28;20029;-77
2022/06/28 09:33:48;;;;;;;5.25;0.90;;;;;;;23.37;70.67;101817.44;5054587;28;20086;-77
2022/06/28 09:36:18;;;;;;;7.88;0.82;;;;;;;23.60;72.79;101809.09;5055770;28;20033;-77
2022/06/28 09:38:44;;;;;;;7.35;1.00;;;;;;;23.69;70.13;101807.97;5038338;28;20071;-77
2022/06/28 09:41:29;;;;;;;5.95;1.25;;;;;;;24.06;70.13;101805.47;5056440;28;20032;-77
2022/06/28 09:43:57;;;;;;;15.85;1.17;;;;;;;23.62;70.47;101807.81;5055548;28;20037;-77
2022/06/28 09:46:26;;;;;;;5.03;1.13;;;;;;;23.59;71.33;101808.19;5056420;28;20032;-78
2022/06/28 09:48:56;;;;;;;3.33;0.80;;;;;;;23.80;69.26;101813.13;5055057;28;20116;-78
2022/06/28 09:51:23;;;;;;;5.97;1.02;;;;;;;23.98;69.30;101804.47;5038557;28;20037;-78
2022/06/28 09:53:56;;;;;;;4.53;0.80;;;;;;;23.50;68.84;101798.13;5038607;28;20068;-78
2022/06/28 09:56:24;;;;;;;11.07;1.00;;;;;;;23.81;68.07;101806.50;5056244;28;20079;-78
2022/06/28 09:58:50;;;;;;;8.48;1.00;;;;;;;23.44;68.84;101793.28;5055184;28;20493;-78
2022/06/28 10:01:17;;;;;;;13.90;1.15;;;;;;;24.34;62.96;101797.34;5056797;28;20033;-78
2022/06/28 10:03:43;;;;;;;10.95;0.80;;;;;;;24.09;69.83;101791.97;5055125;28;20040;-77
2022/06/28 10:06:09;;;;;;;9.05;1.10;;;;;;;24.43;69.74;101796.19;5037388;28;20082;-78
2022/06/28 10:08:35;;;;;;;6.68;0.88;;;;;;;24.05;65.60;101787.78;5055798;28;20033;-78
2022/06/28 10:11:01;;;;;;;5.93;0.85;;;;;;;24.03;69.75;101784.31;5054991;28;20029;-77
2022/06/28 10:16:18;;;;;;;9.75;1.60;;;;;;;24.81;67.33;101786.88;5054633;28;20079;-75
2022/06/28 10:18:45;;;;;;;8.10;1.20;;;;;;;25.97;57.53;101789.88;5055090;28;20036;-78
2022/06/28 10:21:11;;;;;;;7.15;1.05;;;;;;;24.42;64.82;101774.88;5054962;28;20075;-78
2022/06/28 10:23:57;;;;;;;8.50;1.35;;;;;;;24.31;67.21;101776.19;5059151;28;20063;-77
2022/06/28 10:26:24;;;;;;;9.05;0.90;;;;;;;24.43;70.59;101770.97;5057927;28;20044;-77
2022/06/28 10:29:03;;;;;;;9.48;1.40;;;;;;;24.45;65.09;101777.28;5054632;28;20094;-77
2022/06/28 10:31:29;;;;;;;6.88;1.10;;;;;;;23.81;67.12;101763.69;5053669;28;20041;-77
2022/06/28 10:33:57;;;;;;;8.23;1.38;;;;;;;24.38;62.48;101765.09;5037111;28;20033;-76
2022/06/28 10:36:25;;;;;;;7.05;1.10;;;;;;;24.10;63.17;101757.31;5055184;28;20163;-77
2022/06/28 10:39:08;;;;;;;5.63;0.90;;;;;;;24.44;64.52;101760.69;5053692;28;20048;-76
2022/06/28 10:41:46;;;;;;;8.75;1.00;;;;;;;24.32;67.49;101749.94;5054894;28;20040;-77
2022/06/28 10:44:18;;;;;;;9.68;1.25;;;;;;;24.55;63.22;101738.69;5054714;28;20052;-74
2022/06/28 10:47:00;;;;;;;6.88;1.13;;;;;;;24.53;65.78;101740.78;5036913;28;20104;-77
2022/06/28 10:49:26;;;;;;;3.67;1.00;;;;;;;24.64;65.39;101745.06;5053484;28;20087;-77
2022/06/28 10:52:07;;;;;;;5.80;1.23;;;;;;;24.63;64.36;101740.53;5036667;28;20073;-77
2022/06/28 10:54:33;;;;;;;5.15;1.10;;;;;;;24.43;68.13;101736.53;5054424;28;20040;-77
2022/06/28 10:57:00;;;;;;;7.72;1.50;;;;;;;24.91;63.32;101734.25;5054325;28;20481;-77
2022/06/28 10:59:38;;;;;;;4.68;1.10;;;;;;;24.76;65.70;101725.88;5053317;28;20496;-76
2022/06/28 11:02:04;;;;;;;8.18;1.35;;;;;;;24.83;66.34;101725.94;5036631;28;20036;-75
2022/06/28 11:04:30;;;;;;;8.55;1.52;;;;;;;25.00;68.91;101735.00;5053204;28;20025;-76
2022/06/28 11:07:21;;;;;;;5.90;1.23;;;;;;;24.86;63.20;101729.22;5036546;28;20143;-75
2022/06/28 11:09:59;;;;;;;4.45;0.98;;;;;;;25.16;63.15;101722.72;5054178;28;20036;-76
2022/06/28 11:12:28;;;;;;;4.53;0.90;;;;;;;25.18;62.82;101717.75;5053128;28;20037;-76
2022/06/28 11:14:55;;;;;;;5.63;1.30;;;;;;;24.37;65.24;101710.19;5054040;28;20075;-75
2022/06/28 11:17:48;;;;;;;7.68;1.30;;;;;;;25.12;68.74;101709.09;5053821;28;20029;-76
2022/06/28 11:20:19;;;;;;;5.93;0.90;;;;;;;24.91;65.12;101718.31;5053802;28;20397;-76
2022/06/28 11:22:48;;;;;;;5.32;1.00;;;;;;;24.63;66.74;101708.84;5052777;28;20090;-76
2022/06/28 11:25:21;;;;;;;6.43;1.20;;;;;;;24.20;70.91;101706.66;5052701;28;20029;-76